Time;durP1;ratioP1;P1;durP2;ratioP2;P2;SDS_P1;SDS_P2;PMS_P1;PMS_P2;Temp;Humidity;BMP_temperature;BMP_pressure;BME280_temperature;BME280_humidity;BME280_pressure;Samples;Min_cycle;Max_cycle;Signal;HPM_P1;HPM_P2
2023/08/09 00:01:56;;;;;;;3.10;1.80;;;;;;;24.87;39.33;100835.25;104250;1286;69153;-85
2023/08/09 00:04:22;;;;;;;3.70;1.80;;;;;;;24.86;39.65;100838.40;104404;1282;69294;-85
2023/08/09 00:06:48;;;;;;;7.30;2.20;;;;;;;24.85;39.52;100838.04;104281;1288;67956;-85
2023/08/09 00:09:13;;;;;;;3.60;1.90;;;;;;;24.85;39.75;100838.76;104508;1285;69109;-84
2023/08/09 00:11:39;;;;;;;4.60;2.30;;;;;;;24.85;39.44;100833.92;104463;1286;70900;-85
2023/08/09 00:14:04;;;;;;;3.10;2.10;;;;;;;24.85;39.53;100840.26;104565;1286;69285;-85
2023/08/09 00:16:29;;;;;;;4.30;1.80;;;;;;;24.85;39.70;100838.40;104657;1282;69397;-85
2023/08/09 00:18:55;;;;;;;3.40;2.10;;;;;;;24.84;39.71;100840.77;104731;1285;66938;-86
2023/08/09 00:21:20;;;;;;;4.70;2.30;;;;;;;24.84;39.95;100832.85;104332;1284;69673;-86
2023/08/09 00:26:29;;;;;;;3.50;2.40;;;;;;;24.83;39.80;100835.99;104536;1282;69240;-86
2023/08/09 00:28:55;;;;;;;4.10;2.10;;;;;;;24.83;39.72;100838.06;104367;1288;69244;-86
2023/08/09 00:31:20;;;;;;;4.60;2.40;;;;;;;24.82;39.85;100841.27;104293;1285;69170;-86
2023/08/09 00:33:46;;;;;;;6.50;2.20;;;;;;;24.82;40.05;100843.31;104513;1287;69269;-86
2023/08/09 00:36:11;;;;;;;4.70;2.10;;;;;;;24.82;40.06;100844.81;104474;1283;69285;-86
2023/08/09 00:38:37;;;;;;;3.50;2.20;;;;;;;24.82;40.07;100847.43;104237;1288;69265;-86
2023/08/09 00:41:02;;;;;;;3.10;2.30;;;;;;;24.82;39.79;100845.98;104093;1291;69254;-85
2023/08/09 00:43:28;;;;;;;3.70;2.50;;;;;;;24.81;39.95;100841.63;104275;1288;69188;-86
2023/08/09 00:45:54;;;;;;;7.20;2.90;;;;;;;24.81;39.91;100842.15;104057;1289;69348;-85
2023/08/09 00:48:19;;;;;;;4.10;2.30;;;;;;;24.80;39.93;100845.25;104169;1286;69214;-86
2023/08/09 00:50:45;;;;;;;2.80;2.20;;;;;;;24.80;40.06;100842.23;104245;1286;69311;-86
2023/08/09 00:53:10;;;;;;;6.50;2.20;;;;;;;24.79;39.94;100843.30;104238;1289;69269;-86
2023/08/09 00:55:36;;;;;;;4.40;2.30;;;;;;;24.79;40.07;100845.94;104411;1286;69177;-86
2023/08/09 00:58:01;;;;;;;4.60;2.20;;;;;;;24.79;39.95;100847.48;104387;1288;69246;-86
2023/08/09 01:00:27;;;;;;;4.80;2.20;;;;;;;24.77;40.07;100854.02;104464;1288;67509;-86
2023/08/09 01:02:53;;;;;;;5.30;1.80;;;;;;;24.77;40.10;100855.57;104409;1288;69353;-86
2023/08/09 01:05:18;;;;;;;3.70;2.00;;;;;;;24.77;40.16;100858.92;104142;1285;69742;-86
2023/08/09 01:07:54;;;;;;;4.70;2.20;;;;;;;24.77;40.30;100856.34;104422;1283;69366;-86
2023/08/09 01:10:23;;;;;;;4.10;2.20;;;;;;;24.76;40.15;100858.98;104179;1291;69202;-86
2023/08/09 01:12:57;;;;;;;5.00;2.20;;;;;;;24.76;40.11;100853.83;104574;1289;73514;-86
2023/08/09 01:15:22;;;;;;;3.60;1.90;;;;;;;24.75;40.23;100855.64;104609;1286;69195;-86
2023/08/09 01:17:48;;;;;;;3.70;1.90;;;;;;;24.75;40.41;100856.30;104181;1283;69620;-86
2023/08/09 01:20:14;;;;;;;4.90;2.00;;;;;;;24.75;40.27;100856.11;104189;1288;69262;-86
2023/08/09 01:22:46;;;;;;;2.30;1.70;;;;;;;24.74;40.35;100856.67;104152;1283;69256;-86
2023/08/09 01:25:11;;;;;;;4.20;1.90;;;;;;;24.74;40.31;100849.68;104441;1283;73640;-85
2023/08/09 01:27:37;;;;;;;3.70;1.90;;;;;;;24.74;40.33;100849.63;104415;1289;67234;-85
2023/08/09 01:30:10;;;;;;;3.80;1.60;;;;;;;24.74;40.28;100849.23;104448;1286;67311;-85
2023/08/09 01:32:49;;;;;;;3.70;2.00;;;;;;;24.73;40.33;100852.52;104193;1284;69084;-91
2023/08/09 01:35:16;;;;;;;4.60;2.10;;;;;;;24.73;40.44;100854.48;104390;1285;69437;-86
2023/08/09 01:38:16;;;;;;;3.50;2.00;;;;;;;24.72;40.57;100849.59;104197;1289;74470;-86
2023/08/09 01:40:42;;;;;;;2.80;1.70;;;;;;;24.71;40.42;100853.14;104126;1291;69136;-86
2023/08/09 01:43:07;;;;;;;3.20;1.80;;;;;;;24.71;40.51;100849.91;104108;1284;69264;-86
2023/08/09 01:45:33;;;;;;;2.10;1.70;;;;;;;24.71;40.40;100853.14;104263;1283;69313;-86
2023/08/09 01:47:58;;;;;;;4.70;1.90;;;;;;;24.70;40.45;100854.89;104098;1292;69208;-86
2023/08/09 01:50:25;;;;;;;3.10;1.80;;;;;;;24.71;40.34;100862.98;104280;1286;70224;-86
2023/08/09 01:52:55;;;;;;;3.20;1.60;;;;;;;24.70;40.27;100862.66;104173;1288;69209;-85
2023/08/09 01:55:21;;;;;;;3.20;1.60;;;;;;;24.69;40.42;100862.56;104197;1282;70509;-86
2023/08/09 01:57:47;;;;;;;2.90;1.70;;;;;;;24.70;40.49;100864.83;104364;1287;69660;-86
2023/08/09 02:00:18;;;;;;;2.80;1.60;;;;;;;24.70;40.66;100866.98;104202;1288;69704;-86
2023/08/09 02:02:44;;;;;;;2.10;1.60;;;;;;;24.69;40.56;100867.04;104458;1285;68995;-86
2023/08/09 02:05:10;;;;;;;2.30;1.80;;;;;;;24.69;40.73;100869.41;104372;1288;69177;-86
2023/08/09 02:07:36;;;;;;;3.10;1.70;;;;;;;24.69;40.55;100868.77;104445;1283;69250;-86
2023/08/09 02:10:02;;;;;;;2.30;1.70;;;;;;;24.68;40.55;100871.01;104309;1289;69269;-86
2023/08/09 02:12:28;;;;;;;2.10;1.50;;;;;;;24.67;40.55;100872.45;104281;1288;69742;-86
2023/08/09 02:14:53;;;;;;;2.70;1.50;;;;;;;24.68;40.56;100870.70;104454;1283;69278;-86
2023/08/09 02:17:18;;;;;;;4.00;1.70;;;;;;;24.68;40.60;100869.30;104078;1287;363273;-85
2023/08/09 02:19:44;;;;;;;5.30;1.50;;;;;;;24.67;40.72;100864.13;104469;1288;70578;-86
2023/08/09 02:22:09;;;;;;;4.20;1.70;;;;;;;24.67;40.39;100869.74;104145;1288;69298;-85
2023/08/09 02:24:35;;;;;;;2.90;1.60;;;;;;;24.67;40.56;100872.77;104475;1283;69340;-86
2023/08/09 02:27:00;;;;;;;2.60;1.60;;;;;;;24.66;40.57;100875.91;104466;1283;69741;-86
2023/08/09 02:29:34;;;;;;;2.80;1.60;;;;;;;24.66;40.57;100873.35;104440;1283;69282;-91
2023/08/09 02:32:00;;;;;;;5.10;1.50;;;;;;;24.66;40.71;100873.86;104346;1285;73736;-86
2023/08/09 02:34:25;;;;;;;3.80;1.90;;;;;;;24.65;40.67;100874.03;104421;1284;69275;-85
2023/08/09 02:36:51;;;;;;;3.20;1.70;;;;;;;24.65;40.45;100878.04;104422;1286;69255;-86
2023/08/09 02:39:16;;;;;;;2.60;1.60;;;;;;;24.65;40.67;100883.08;104236;1288;67575;-85
2023/08/09 02:41:42;;;;;;;2.40;1.60;;;;;;;24.64;40.71;100882.98;104264;1292;69278;-86
2023/08/09 02:44:08;;;;;;;2.90;1.80;;;;;;;24.64;40.58;100882.46;104291;1288;69252;-85
2023/08/09 02:46:33;;;;;;;3.60;1.90;;;;;;;24.64;40.73;100878.57;104410;1288;69273;-86
2023/08/09 02:48:59;;;;;;;2.80;1.70;;;;;;;24.64;40.74;100877.48;104382;1287;69270;-85
2023/08/09 02:51:24;;;;;;;4.80;1.70;;;;;;;24.63;40.46;100879.60;104322;1282;69838;-86
2023/08/09 02:54:00;;;;;;;2.90;1.40;;;;;;;24.62;40.53;100879.70;104364;1291;69273;-85
2023/08/09 02:56:26;;;;;;;16.90;2.50;;;;;;;24.61;40.61;100879.67;104426;1288;69059;-87
2023/08/09 02:58:52;;;;;;;16.70;2.80;;;;;;;24.58;40.53;100882.92;104459;1288;69205;-85
2023/08/09 03:01:21;;;;;;;8.10;2.10;;;;;;;24.54;40.50;100882.04;104417;1288;69333;-85
2023/08/09 03:03:50;;;;;;;5.50;2.30;;;;;;;24.49;40.27;100887.70;104373;1286;73575;-85
2023/08/09 03:06:17;;;;;;;3.80;1.80;;;;;;;24.41;40.29;100893.41;104244;1289;69340;-86
2023/08/09 03:08:44;;;;;;;6.60;1.80;;;;;;;24.34;40.42;100894.74;104418;1289;69177;-86
2023/08/09 03:13:53;;;;;;;3.20;1.70;;;;;;;24.16;40.26;100897.91;104268;1289;69254;-85
2023/08/09 03:16:19;;;;;;;3.80;2.00;;;;;;;24.00;40.33;100897.23;104027;1290;67505;-85
2023/08/09 03:18:45;;;;;;;3.30;1.90;;;;;;;23.84;40.22;100898.22;103975;1292;69267;-86
2023/08/09 03:21:11;;;;;;;3.70;1.80;;;;;;;23.68;40.28;100898.25;104179;1290;69180;-85
2023/08/09 03:23:37;;;;;;;4.70;2.00;;;;;;;23.54;40.61;100903.75;104314;1285;69194;-85
2023/08/09 03:26:03;;;;;;;3.50;2.00;;;;;;;23.41;40.57;100908.88;104237;1285;69281;-85
2023/08/09 03:28:28;;;;;;;3.90;2.20;;;;;;;23.27;40.71;100909.99;104302;1290;69327;-85
2023/08/09 03:30:54;;;;;;;3.80;2.10;;;;;;;23.17;40.89;100909.52;104225;1286;69205;-85
2023/08/09 03:33:19;;;;;;;6.00;1.90;;;;;;;23.07;40.98;100904.27;104268;1291;67320;-85
2023/08/09 03:35:45;;;;;;;6.50;2.00;;;;;;;22.98;41.16;100911.37;104181;1286;69275;-85
2023/08/09 03:38:19;;;;;;;4.40;1.80;;;;;;;22.90;41.08;100912.66;104134;1290;69341;-91
2023/08/09 03:40:44;;;;;;;5.30;1.90;;;;;;;22.81;41.13;100911.68;104108;1285;69174;-85
2023/08/09 03:43:10;;;;;;;5.70;2.00;;;;;;;22.74;41.22;100913.65;103943;1290;69278;-85
2023/08/09 03:45:35;;;;;;;5.60;2.10;;;;;;;22.70;41.26;100914.52;103968;1288;69286;-85
2023/08/09 03:48:33;;;;;;;3.30;1.90;;;;;;;22.62;41.39;100915.23;104024;1287;83752;-85
2023/08/09 03:51:31;;;;;;;5.00;2.10;;;;;;;22.54;41.38;100915.78;104241;1291;74065;-85
2023/08/09 03:53:57;;;;;;;4.20;2.10;;;;;;;22.53;41.55;100914.98;104244;1286;69249;-85
2023/08/09 03:56:22;;;;;;;5.60;2.00;;;;;;;22.53;41.45;100915.80;104021;1287;70449;-85
2023/08/09 03:59:20;;;;;;;5.20;2.00;;;;;;;22.53;41.45;100920.15;104147;1285;73554;-85
2023/08/09 04:02:18;;;;;;;4.30;2.20;;;;;;;22.54;41.40;100923.64;104257;1289;83710;-85
2023/08/09 04:05:19;;;;;;;5.60;2.00;;;;;;;22.52;41.33;100931.64;104247;1289;70417;-85
2023/08/09 04:08:17;;;;;;;12.00;2.10;;;;;;;22.51;41.20;100931.89;104202;1290;69298;-85
2023/08/09 04:11:15;;;;;;;4.50;2.00;;;;;;;22.51;41.11;100930.30;104245;1289;69242;-86
2023/08/09 04:15:18;;;;;;;3.40;1.80;;;;;;;22.51;41.04;100934.52;104294;1288;75943;-86
2023/08/09 04:19:23;;;;;;;3.20;1.70;;;;;;;22.46;41.07;100939.89;104194;1293;72544;-85
2023/08/09 04:22:21;;;;;;;2.50;2.00;;;;;;;22.43;41.09;100941.31;104255;1288;71391;-85
2023/08/09 04:24:46;;;;;;;3.30;1.50;;;;;;;22.44;41.00;100948.55;104247;1300;69261;-85
2023/08/09 04:27:12;;;;;;;3.50;1.70;;;;;;;22.45;40.99;100948.76;104074;1288;69101;-85
2023/08/09 04:29:37;;;;;;;4.80;1.90;;;;;;;22.46;40.97;100944.91;104361;1290;69308;-85
2023/08/09 04:32:07;;;;;;;4.50;1.70;;;;;;;22.46;41.04;100949.12;104212;1289;70851;-91
2023/08/09 04:35:05;;;;;;;7.50;2.10;;;;;;;22.45;40.92;100946.45;103997;1290;69127;-88
2023/08/09 04:37:31;;;;;;;5.70;1.90;;;;;;;22.46;40.88;100948.61;104173;1291;70356;-85
2023/08/09 04:39:57;;;;;;;8.50;2.00;;;;;;;22.46;40.89;100946.45;104229;1290;69214;-85
2023/08/09 04:42:22;;;;;;;4.30;1.80;;;;;;;22.48;40.82;100943.13;104164;1291;69283;-85
2023/08/09 04:44:48;;;;;;;3.70;1.90;;;;;;;22.49;40.67;100942.98;103832;1293;70866;-85
2023/08/09 04:47:14;;;;;;;5.20;1.90;;;;;;;22.50;40.63;100948.24;104263;1293;67136;-86
2023/08/09 04:49:40;;;;;;;4.60;2.20;;;;;;;22.50;40.73;100948.71;104205;1290;69215;-85
2023/08/09 04:52:06;;;;;;;5.30;2.10;;;;;;;22.51;40.62;100949.98;104288;1291;74599;-85
2023/08/09 04:54:32;;;;;;;7.20;2.00;;;;;;;22.53;40.63;100953.18;104372;1288;69286;-85
2023/08/09 04:56:57;;;;;;;7.00;2.10;;;;;;;22.55;40.44;100951.79;104131;1289;69308;-85
2023/08/09 04:59:23;;;;;;;5.30;1.90;;;;;;;22.55;40.49;100956.20;104219;1290;70423;-86
2023/08/09 05:04:29;;;;;;;3.60;1.80;;;;;;;22.58;40.54;100954.17;104498;1287;72492;-85
2023/08/09 05:06:55;;;;;;;6.30;2.10;;;;;;;22.64;40.51;100957.50;104487;1284;69299;-85
2023/08/09 05:09:21;;;;;;;5.20;2.00;;;;;;;22.69;40.37;100958.78;104480;1285;69372;-85
2023/08/09 05:11:46;;;;;;;4.20;1.80;;;;;;;22.72;40.34;100960.17;104511;1286;69262;-85
2023/08/09 05:14:12;;;;;;;3.50;1.50;;;;;;;22.74;40.27;100956.73;104673;1287;69272;-86
2023/08/09 05:16:37;;;;;;;2.80;1.60;;;;;;;22.80;40.59;100957.80;104384;1285;69276;-85
2023/08/09 05:19:03;;;;;;;4.50;1.90;;;;;;;22.86;40.96;100960.85;104487;1285;69174;-85
2023/08/09 05:21:29;;;;;;;13.30;2.30;;;;;;;22.92;41.04;100967.50;104813;1285;66859;-85
2023/08/09 05:23:55;;;;;;;21.80;2.60;;;;;;;22.97;41.03;100968.84;104593;1289;69206;-85
2023/08/09 05:26:20;;;;;;;15.30;2.80;;;;;;;23.04;41.16;100976.12;104615;1283;69124;-85
2023/08/09 05:28:54;;;;;;;11.50;3.30;;;;;;;23.09;41.33;100978.74;104687;1288;69183;-91
2023/08/09 05:31:20;;;;;;;16.80;7.20;;;;;;;23.12;41.55;100983.39;105011;1285;69150;-86
2023/08/09 05:33:45;;;;;;;13.90;10.60;;;;;;;23.17;41.56;100978.32;105579;1284;69199;-87
2023/08/09 05:36:11;;;;;;;15.30;8.50;;;;;;;23.20;41.34;100983.19;105128;1289;69183;-86
2023/08/09 05:38:37;;;;;;;10.00;6.50;;;;;;;23.23;41.25;100985.31;105140;1284;69018;-86
2023/08/09 05:41:02;;;;;;;10.60;5.60;;;;;;;23.26;41.18;100987.42;105047;1283;69176;-86
2023/08/09 05:43:28;;;;;;;8.00;4.10;;;;;;;23.30;41.04;100985.77;104745;1284;73583;-85
2023/08/09 05:45:54;;;;;;;7.20;3.40;;;;;;;23.33;40.93;100987.57;104825;1287;69194;-85
2023/08/09 05:48:20;;;;;;;5.80;2.70;;;;;;;23.37;40.69;100991.91;104788;1285;69352;-85
2023/08/09 05:50:45;;;;;;;4.50;2.40;;;;;;;23.39;40.54;100990.12;104652;1285;69219;-85
2023/08/09 05:53:12;;;;;;;4.30;2.10;;;;;;;23.42;40.38;100987.80;104782;1288;69195;-85
2023/08/09 05:55:54;;;;;;;6.90;2.00;;;;;;;23.44;40.26;100990.48;104805;1285;69275;-90
2023/08/09 05:58:20;;;;;;;4.80;1.80;;;;;;;23.47;40.15;100993.49;104506;1285;69058;-86
2023/08/09 06:00:46;;;;;;;3.60;1.50;;;;;;;23.49;39.93;100988.35;104731;1285;69204;-85
2023/08/09 06:03:12;;;;;;;2.30;1.40;;;;;;;23.50;39.84;100991.89;104665;1285;69254;-85
2023/08/09 06:05:38;;;;;;;3.70;1.30;;;;;;;23.51;39.70;100992.70;104349;1293;69151;-85
2023/08/09 06:08:04;;;;;;;9.50;2.30;;;;;;;23.52;39.39;100987.21;104531;1288;69677;-85
2023/08/09 06:13:12;;;;;;;6.80;1.80;;;;;;;23.55;39.17;100982.17;104620;1283;67372;-85
2023/08/09 06:15:38;;;;;;;7.90;1.90;;;;;;;23.58;39.11;100989.11;104566;1285;67280;-86
2023/08/09 06:18:04;;;;;;;4.30;1.60;;;;;;;23.59;39.06;100985.70;104506;1285;69195;-86
2023/08/09 06:20:30;;;;;;;3.70;1.70;;;;;;;23.60;38.94;100985.70;104673;1287;69259;-86
2023/08/09 06:22:56;;;;;;;10.10;1.90;;;;;;;23.62;38.74;100991.30;104621;1285;69277;-86
2023/08/09 06:25:22;;;;;;;5.90;1.40;;;;;;;23.63;38.67;100987.08;104722;1284;69183;-86
2023/08/09 06:27:47;;;;;;;7.10;1.50;;;;;;;23.65;38.54;100988.31;104650;1285;69192;-86
2023/08/09 06:30:13;;;;;;;4.30;1.30;;;;;;;23.67;38.58;100990.77;104645;1284;69260;-86
2023/08/09 06:32:39;;;;;;;4.40;1.30;;;;;;;23.68;38.45;100991.70;105050;1285;69197;-86
2023/08/09 06:35:05;;;;;;;2.90;1.20;;;;;;;23.70;38.31;100990.20;104710;1285;69185;-86
2023/08/09 06:37:45;;;;;;;3.40;1.50;;;;;;;23.72;38.26;100992.10;104534;1286;69847;-92
2023/08/09 06:40:11;;;;;;;5.40;1.20;;;;;;;23.74;38.28;100991.88;104469;1285;73603;-86
2023/08/09 06:42:37;;;;;;;2.80;1.40;;;;;;;23.75;38.10;100995.79;104696;1284;69889;-86
2023/08/09 06:45:03;;;;;;;3.30;1.20;;;;;;;23.77;38.16;100996.23;104695;1285;69311;-86
2023/08/09 06:47:29;;;;;;;2.20;1.10;;;;;;;23.78;38.11;100993.15;104702;1285;69255;-85
2023/08/09 06:49:54;;;;;;;4.00;1.30;;;;;;;23.79;38.13;100992.16;104697;1285;69333;-85
2023/08/09 06:52:20;;;;;;;2.40;1.10;;;;;;;23.82;37.99;100993.86;104776;1284;69248;-85
2023/08/09 06:54:45;;;;;;;4.80;1.10;;;;;;;23.84;37.84;100995.28;104766;1285;68281;-85
2023/08/09 06:57:11;;;;;;;5.70;1.30;;;;;;;23.85;37.78;100995.33;104777;1285;69235;-86
2023/08/09 06:59:36;;;;;;;1.70;1.20;;;;;;;23.87;37.91;100996.51;104568;1286;69280;-86
2023/08/09 07:02:02;;;;;;;3.50;1.30;;;;;;;23.89;37.71;100997.38;104656;1285;69616;-85
2023/08/09 07:04:32;;;;;;;6.80;1.30;;;;;;;23.91;37.90;100994.90;104700;1288;69353;-91
2023/08/09 07:06:57;;;;;;;4.30;1.10;;;;;;;23.92;37.67;100993.41;105259;1287;69339;-86
2023/08/09 07:09:23;;;;;;;2.50;1.30;;;;;;;23.94;37.85;100989.65;104987;1284;69194;-85
2023/08/09 07:11:48;;;;;;;4.20;1.30;;;;;;;23.95;37.76;100990.98;104672;1284;69207;-85
2023/08/09 07:14:14;;;;;;;6.50;1.50;;;;;;;23.97;37.83;100992.80;104742;1289;69156;-85
2023/08/09 07:16:40;;;;;;;4.60;1.40;;;;;;;23.98;37.70;100988.36;104870;1286;69374;-85
2023/08/09 07:19:05;;;;;;;3.60;1.40;;;;;;;24.00;37.75;100990.11;104559;1290;69350;-85
2023/08/09 07:21:31;;;;;;;5.30;1.30;;;;;;;24.01;37.75;100987.17;104582;1285;68348;-85
2023/08/09 07:23:57;;;;;;;3.20;1.30;;;;;;;24.01;37.64;100984.23;104706;1285;69365;-85
2023/08/09 07:26:22;;;;;;;4.70;1.40;;;;;;;24.02;37.53;100982.50;104885;1285;69306;-85
2023/08/09 07:28:48;;;;;;;5.00;1.30;;;;;;;24.03;37.61;100982.91;104780;1285;88588;-85
2023/08/09 07:31:29;;;;;;;3.80;1.30;;;;;;;24.05;37.52;100979.87;104571;1283;74711;-90
2023/08/09 07:33:54;;;;;;;5.20;1.40;;;;;;;24.06;37.62;100978.88;104591;1286;69205;-85
2023/08/09 07:36:20;;;;;;;3.00;1.50;;;;;;;24.08;37.54;100980.62;104497;1285;69138;-85
2023/08/09 07:38:45;;;;;;;4.40;1.20;;;;;;;24.09;37.57;100981.33;104472;1285;69334;-85
2023/08/09 07:41:11;;;;;;;3.30;1.30;;;;;;;24.10;37.59;100977.97;104528;1283;69250;-85
2023/08/09 07:43:37;;;;;;;1.50;1.20;;;;;;;24.11;37.30;100973.39;104548;1285;69147;-85
2023/08/09 07:46:05;;;;;;;1.80;1.00;;;;;;;24.12;37.37;100977.15;104260;1291;69257;-86
2023/08/09 07:48:32;;;;;;;2.40;1.00;;;;;;;24.12;37.42;100970.41;104471;1285;69263;-85
2023/08/09 07:50:58;;;;;;;3.40;1.10;;;;;;;24.13;37.41;100969.84;104709;1285;69071;-85
2023/08/09 07:53:23;;;;;;;2.60;1.00;;;;;;;24.15;37.47;100967.38;104640;1290;69282;-86
2023/08/09 07:55:49;;;;;;;3.20;1.20;;;;;;;24.16;37.47;100964.13;104761;1288;69189;-86
2023/08/09 07:58:23;;;;;;;3.50;1.10;;;;;;;24.18;37.34;100967.26;104571;1285;67643;-91
2023/08/09 08:00:49;;;;;;;2.90;0.90;;;;;;;24.19;37.41;100964.20;104526;1283;69177;-86
2023/08/09 08:03:14;;;;;;;2.40;0.80;;;;;;;24.19;37.33;100959.58;104658;1285;69137;-86
2023/08/09 08:05:40;;;;;;;1.70;1.00;;;;;;;24.20;37.14;100953.65;104547;1286;69200;-85
2023/08/09 08:08:06;;;;;;;5.00;0.90;;;;;;;24.21;37.21;100949.80;104514;1285;69137;-86
2023/08/09 08:10:32;;;;;;;1.60;1.00;;;;;;;24.21;37.31;100947.13;104593;1285;69250;-86
2023/08/09 08:12:57;;;;;;;2.40;0.90;;;;;;;24.20;37.24;100945.80;104475;1286;69272;-85
2023/08/09 08:15:23;;;;;;;3.80;0.90;;;;;;;24.20;37.02;100947.33;104462;1283;74203;-86
2023/08/09 08:17:51;;;;;;;2.50;1.00;;;;;;;24.21;36.86;100949.60;104591;1286;69269;-86
2023/08/09 08:20:17;;;;;;;3.10;0.80;;;;;;;24.20;37.07;100951.35;104603;1288;69217;-86
2023/08/09 08:22:44;;;;;;;5.10;1.00;;;;;;;24.19;36.99;100949.67;104427;1286;69863;-86
2023/08/09 08:25:15;;;;;;;3.50;0.90;;;;;;;24.18;36.84;100942.98;104469;1285;69310;-91
2023/08/09 08:27:45;;;;;;;1.70;1.00;;;;;;;24.19;36.98;100942.21;104456;1285;74216;-85
2023/08/09 08:30:17;;;;;;;3.90;1.00;;;;;;;24.20;36.97;100944.58;104589;1285;69209;-86
2023/08/09 08:32:44;;;;;;;3.60;1.20;;;;;;;24.21;36.74;100942.77;104668;1284;69240;-86
2023/08/09 08:35:13;;;;;;;2.60;1.10;;;;;;;24.23;36.65;100940.95;104539;1285;69011;-86
2023/08/09 08:37:41;;;;;;;3.00;1.00;;;;;;;24.24;36.63;100937.39;104524;1285;69090;-86
2023/08/09 08:40:25;;;;;;;1.10;0.80;;;;;;;24.25;36.87;100936.15;104500;1285;74755;-91
2023/08/09 08:42:51;;;;;;;1.30;1.00;;;;;;;24.27;36.85;100933.98;104420;1288;70713;-86
2023/08/09 08:45:19;;;;;;;4.60;1.00;;;;;;;24.29;36.74;100933.98;104459;1285;69269;-86
2023/08/09 08:47:45;;;;;;;2.80;1.00;;;;;;;24.31;36.61;100928.09;104381;1285;69187;-86
2023/08/09 08:50:12;;;;;;;2.80;0.90;;;;;;;24.33;36.83;100930.34;104412;1284;69464;-86
2023/08/09 08:52:40;;;;;;;3.60;0.70;;;;;;;24.36;36.65;100928.21;104571;1285;69229;-85
2023/08/09 08:55:10;;;;;;;1.90;0.90;;;;;;;24.37;36.87;100922.14;104611;1285;69065;-91
2023/08/09 08:57:37;;;;;;;3.20;0.90;;;;;;;24.39;36.66;100918.17;104392;1283;69195;-85
2023/08/09 09:00:08;;;;;;;3.40;1.00;;;;;;;24.41;36.73;100915.27;104421;1288;69283;-85
2023/08/09 09:02:38;;;;;;;1.30;1.00;;;;;;;24.42;36.59;100912.73;104314;1290;69189;-85
2023/08/09 09:05:06;;;;;;;;;;;;;;;24.44;36.46;100910.25;104552;1285;73711;-85
2023/08/09 09:07:32;;;;;;;2.50;0.90;;;;;;;24.41;36.39;100913.27;104594;1285;69148;-85
2023/08/09 09:10:12;;;;;;;1.40;1.00;;;;;;;24.41;36.35;100912.40;104261;1285;69325;-91
2023/08/09 09:12:38;;;;;;;0.80;0.70;;;;;;;24.41;36.06;100909.25;104436;1285;69196;-85
2023/08/09 09:15:05;;;;;;;3.30;0.80;;;;;;;24.42;35.86;100908.73;104521;1285;69263;-85
2023/08/09 09:17:41;;;;;;;1.40;0.60;;;;;;;24.41;35.79;100903.08;104164;1285;69257;-85
2023/08/09 09:20:10;;;;;;;1.90;0.70;;;;;;;24.40;35.74;100907.45;104774;1288;69165;-85
2023/08/09 09:22:36;;;;;;;4.60;0.90;;;;;;;24.41;35.67;100905.09;104462;1285;69096;-85
2023/08/09 09:25:02;;;;;;;0.70;0.70;;;;;;;24.42;35.62;100902.25;104443;1285;69281;-91
2023/08/09 09:27:32;;;;;;;2.50;0.80;;;;;;;24.43;35.69;100899.92;104260;1290;69246;-85
2023/08/09 09:30:04;;;;;;;4.80;1.00;;;;;;;24.45;35.58;100898.05;104382;1290;73875;-85
2023/08/09 09:32:33;;;;;;;2.00;1.10;;;;;;;24.47;35.67;100892.18;104397;1285;69157;-85
2023/08/09 09:34:59;;;;;;;3.00;1.20;;;;;;;24.50;35.75;100893.13;104231;1285;69671;-85
2023/08/09 09:37:28;;;;;;;3.10;1.20;;;;;;;24.52;35.84;100893.38;104336;1285;69263;-85
2023/08/09 09:39:54;;;;;;;2.80;1.10;;;;;;;24.54;35.84;100891.66;104210;1285;69100;-85
2023/08/09 09:42:33;;;;;;;1.80;1.00;;;;;;;24.57;35.94;100887.56;103992;1285;69273;-85
2023/08/09 09:45:04;;;;;;;1.00;0.90;;;;;;;24.58;35.88;100886.63;104422;1284;69249;-85
2023/08/09 09:47:33;;;;;;;1.60;1.00;;;;;;;24.60;35.69;100888.77;104442;1285;69207;-85
2023/08/09 09:49:58;;;;;;;1.20;0.90;;;;;;;24.63;35.79;100889.48;104286;1284;69203;-85
2023/08/09 09:52:24;;;;;;;1.30;0.90;;;;;;;24.65;35.67;100887.77;104184;1290;69190;-85
2023/08/09 09:54:50;;;;;;;2.60;0.90;;;;;;;24.66;35.71;100885.23;104492;1285;69266;-86
2023/08/09 09:57:16;;;;;;;3.00;1.00;;;;;;;24.68;35.78;100884.90;104221;1285;69247;-85
2023/08/09 09:59:41;;;;;;;1.10;0.90;;;;;;;24.70;35.67;100878.87;104455;1286;69186;-85
2023/08/09 10:02:07;;;;;;;2.20;0.90;;;;;;;24.72;35.73;100876.91;104512;1285;67521;-85
2023/08/09 10:04:33;;;;;;;3.60;0.80;;;;;;;24.75;35.66;100872.67;104457;1285;69264;-85
2023/08/09 10:06:58;;;;;;;2.10;0.90;;;;;;;24.77;35.58;100868.90;104157;1290;69221;-85
2023/08/09 10:09:24;;;;;;;1.80;1.00;;;;;;;24.78;35.59;100867.97;104394;1285;69236;-86
2023/08/09 10:11:50;;;;;;;1.60;1.00;;;;;;;24.81;35.70;100866.54;104279;1285;69138;-86
2023/08/09 10:14:16;;;;;;;1.10;0.70;;;;;;;24.84;35.81;100864.55;104310;1288;74443;-86
2023/08/09 10:16:41;;;;;;;3.90;0.90;;;;;;;24.87;35.89;100862.67;104520;1286;69304;-86
2023/08/09 10:19:08;;;;;;;2.00;0.90;;;;;;;24.89;35.70;100867.13;104608;1288;69726;-86
2023/08/09 10:21:34;;;;;;;2.30;0.90;;;;;;;24.91;35.53;100867.32;104279;1285;69320;-86
2023/08/09 10:24:07;;;;;;;2.90;1.20;;;;;;;24.92;35.50;100860.47;104513;1285;69279;-85
2023/08/09 10:26:33;;;;;;;2.80;1.00;;;;;;;24.93;35.46;100858.59;105172;1285;73418;-87
2023/08/09 10:29:06;;;;;;;2.20;1.10;;;;;;;24.94;35.59;100857.19;104689;1285;67887;-87
2023/08/09 10:31:51;;;;;;;2.50;1.00;;;;;;;24.95;35.48;100854.15;104370;1290;69211;-86
2023/08/09 10:34:22;;;;;;;3.30;0.80;;;;;;;24.95;35.50;100853.59;104904;1286;69032;-87
2023/08/09 10:36:49;;;;;;;1.10;0.80;;;;;;;24.95;35.38;100849.67;104747;1285;69189;-87
2023/08/09 10:39:16;;;;;;;2.10;0.90;;;;;;;24.95;35.30;100850.64;104404;1291;81994;-86
2023/08/09 10:41:53;;;;;;;1.30;0.90;;;;;;;24.95;35.28;100850.60;104523;1286;69290;-86
2023/08/09 10:44:36;;;;;;;2.20;0.80;;;;;;;24.94;35.34;100850.55;104598;1286;69251;-86
2023/08/09 10:47:21;;;;;;;3.90;0.80;;;;;;;24.95;34.99;100840.10;104484;1285;69247;-86
2023/08/09 10:49:53;;;;;;;0.90;0.70;;;;;;;24.94;35.08;100832.84;104432;1288;69212;-86
2023/08/09 10:52:20;;;;;;;1.50;0.80;;;;;;;24.95;34.89;100829.08;104396;1285;73563;-86
2023/08/09 10:54:46;;;;;;;1.00;0.70;;;;;;;24.96;34.85;100827.33;104384;1288;69126;-87
2023/08/09 10:57:12;;;;;;;3.00;0.80;;;;;;;24.96;34.43;100824.70;104170;1285;69275;-86
2023/08/09 10:59:38;;;;;;;1.20;0.90;;;;;;;24.97;34.47;100822.42;104382;1288;69229;-86
2023/08/09 11:02:05;;;;;;;1.10;1.00;;;;;;;24.99;34.65;100821.06;104306;1291;69136;-86
2023/08/09 11:04:30;;;;;;;2.00;0.80;;;;;;;25.00;34.53;100822.14;104487;1285;69047;-86
2023/08/09 11:06:56;;;;;;;1.90;0.80;;;;;;;25.02;34.78;100819.13;104430;1285;69218;-86
2023/08/09 11:09:22;;;;;;;3.20;0.80;;;;;;;25.02;34.40;100817.52;104444;1285;69197;-86
2023/08/09 11:11:49;;;;;;;2.60;0.90;;;;;;;25.03;34.34;100814.85;104631;1285;67100;-86
2023/08/09 11:14:17;;;;;;;1.30;0.90;;;;;;;25.02;34.31;100811.86;104644;1285;69254;-86
2023/08/09 11:16:43;;;;;;;1.60;0.80;;;;;;;25.02;34.38;100807.96;105062;1285;69171;-86
2023/08/09 11:19:14;;;;;;;2.50;1.00;;;;;;;25.01;34.41;100808.33;105076;1285;69139;-86
2023/08/09 11:21:43;;;;;;;;;;;;;;;25.01;34.46;100807.91;105426;1285;69208;-85
2023/08/09 11:24:09;;;;;;;1.20;0.70;;;;;;;24.99;34.57;100806.96;104335;1289;69183;-86
2023/08/09 11:26:36;;;;;;;1.40;0.90;;;;;;;24.99;34.60;100802.98;104423;1285;69339;-85
2023/08/09 11:29:03;;;;;;;2.10;1.10;;;;;;;24.99;34.51;100798.88;104301;1285;69334;-85
2023/08/09 11:31:31;;;;;;;1.90;0.90;;;;;;;24.99;34.64;100796.61;104340;1290;69246;-85
2023/08/09 11:33:57;;;;;;;2.40;0.90;;;;;;;25.00;34.36;100793.73;104673;1287;69317;-85
2023/08/09 11:36:50;;;;;;;2.70;1.00;;;;;;;24.99;34.39;100790.13;104131;1291;69225;-91